Time;durP1;ratioP1;P1;durP2;ratioP2;P2;SDS_P1;SDS_P2;PMS_P1;PMS_P2;Temp;Humidity;BMP_temperature;BMP_pressure;BME280_temperature;BME280_humidity;BME280_pressure;Samples;Min_cycle;Max_cycle;Signal;HPM_P1;HPM_P2
2021/08/22 00:02:00;;;;;;;6.88;5.65;;;;;;;23.02;64.13;95676.41;5033608;28;20206;-85
2021/08/22 00:04:27;;;;;;;6.45;5.85;;;;;;;22.99;63.97;95675.09;5033449;28;20218;-85
2021/08/22 00:06:53;;;;;;;5.95;5.45;;;;;;;23.00;63.49;95675.88;5033493;28;20721;-86
2021/08/22 00:09:20;;;;;;;7.15;5.70;;;;;;;23.01;63.42;95682.72;5033596;28;20213;-86
2021/08/22 00:11:46;;;;;;;6.45;5.80;;;;;;;23.01;63.38;95686.13;5033063;28;20205;-85
2021/08/22 00:14:13;;;;;;;6.18;5.57;;;;;;;22.99;63.46;95677.72;5033074;28;20229;-86
2021/08/22 00:16:42;;;;;;;6.35;5.78;;;;;;;23.00;63.27;95674.03;5033466;28;20248;-85
2021/08/22 00:19:09;;;;;;;6.45;5.40;;;;;;;22.97;63.00;95681.63;5034091;28;20213;-86
2021/08/22 00:21:35;;;;;;;6.30;5.75;;;;;;;22.95;63.11;95679.25;5032704;28;20685;-85
2021/08/22 00:24:02;;;;;;;5.85;5.35;;;;;;;22.93;63.00;95667.41;5033316;28;20713;-85
2021/08/22 00:26:28;;;;;;;6.00;5.40;;;;;;;22.96;63.02;95666.91;5033110;28;20211;-85
2021/08/22 00:28:55;;;;;;;6.03;5.53;;;;;;;23.01;62.23;95667.75;5033251;28;20225;-86
2021/08/22 00:31:24;;;;;;;6.22;5.63;;;;;;;22.99;62.69;95669.84;5033312;28;20206;-86
2021/08/22 00:33:52;;;;;;;6.10;5.60;;;;;;;22.97;62.75;95669.28;5033010;28;20233;-86
2021/08/22 00:36:19;;;;;;;6.00;5.50;;;;;;;22.95;62.99;95670.56;5032316;28;20226;-85
2021/08/22 00:38:48;;;;;;;6.38;5.80;;;;;;;22.90;62.93;95666.06;5033661;28;20202;-86
2021/08/22 00:41:15;;;;;;;7.22;5.57;;;;;;;22.93;62.56;95667.41;5033209;28;20202;-86
2021/08/22 00:43:44;;;;;;;7.82;5.57;;;;;;;22.90;62.52;95663.44;5032719;28;20230;-86
2021/08/22 00:46:10;;;;;;;6.32;5.72;;;;;;;22.92;62.44;95665.81;5033399;28;20206;-84
2021/08/22 00:48:39;;;;;;;5.28;4.78;;;;;;;22.92;61.94;95671.06;5032978;28;20205;-86
2021/08/22 00:51:07;;;;;;;6.10;5.55;;;;;;;22.94;62.32;95666.38;5033430;28;20202;-85
2021/08/22 00:53:33;;;;;;;5.75;5.25;;;;;;;22.95;62.07;95673.19;5032804;28;20229;-83
2021/08/22 00:56:03;;;;;;;6.38;5.53;;;;;;;22.92;61.87;95666.63;5032508;28;20293;-82
2021/08/22 00:58:31;;;;;;;5.85;5.30;;;;;;;22.93;61.76;95670.81;5033008;28;20784;-83
2021/08/22 01:00:57;;;;;;;5.90;5.30;;;;;;;22.93;61.67;95670.03;5032919;28;20614;-85
2021/08/22 01:03:35;;;;;;;6.10;5.05;;;;;;;22.92;62.08;95669.25;5032214;28;20209;-84
2021/08/22 01:06:07;;;;;;;6.07;5.20;;;;;;;22.90;61.96;95668.69;5031894;28;20241;-84
2021/08/22 01:08:39;;;;;;;6.05;5.40;;;;;;;22.87;61.71;95666.59;5031242;28;20205;-82
2021/08/22 01:11:11;;;;;;;6.00;5.50;;;;;;;22.85;61.75;95660.81;5030786;28;20213;-82
2021/08/22 01:13:42;;;;;;;5.63;5.05;;;;;;;22.89;61.49;95658.47;5030545;28;20229;-83
2021/08/22 01:16:11;;;;;;;5.60;5.10;;;;;;;22.87;61.76;95650.84;5030634;28;20209;-84
2021/08/22 01:18:40;;;;;;;5.60;5.10;;;;;;;22.90;61.37;95660.06;5030962;28;20688;-83
2021/08/22 01:21:12;;;;;;;5.55;4.75;;;;;;;22.88;61.22;95649.81;5030920;28;20202;-81
2021/08/22 01:23:44;;;;;;;5.38;4.70;;;;;;;22.88;61.25;95655.06;5032187;28;20741;-82
2021/08/22 01:26:12;;;;;;;5.15;4.72;;;;;;;22.90;61.15;95649.56;5032577;28;20237;-81
2021/08/22 01:28:40;;;;;;;5.20;4.80;;;;;;;22.93;61.05;95643.78;5033893;28;20205;-82
2021/08/22 01:31:11;;;;;;;6.72;5.38;;;;;;;22.89;60.85;95643.50;5035559;28;20209;-83
2021/08/22 01:33:41;;;;;;;5.20;4.70;;;;;;;22.89;60.74;95643.50;5033946;28;20222;-82
2021/08/22 01:36:09;;;;;;;5.25;4.75;;;;;;;22.79;60.74;95645.25;5033213;28;20213;-83
2021/08/22 01:38:39;;;;;;;5.82;4.68;;;;;;;22.80;60.85;95642.38;5033411;28;20226;-83
2021/08/22 01:41:07;;;;;;;5.45;5.00;;;;;;;22.84;60.71;95640.06;5033248;28;20230;-83
2021/08/22 01:43:35;;;;;;;4.97;4.57;;;;;;;22.82;60.58;95644.75;5032919;28;20257;-84
2021/08/22 01:46:02;;;;;;;5.18;4.70;;;;;;;22.79;60.43;95648.69;5034253;28;20210;-83
2021/08/22 01:48:29;;;;;;;5.72;4.95;;;;;;;22.83;60.53;95655.00;5036941;28;20198;-85
2021/08/22 01:50:58;;;;;;;5.00;4.65;;;;;;;22.86;60.39;95662.38;5036469;28;20209;-86
2021/08/22 01:53:25;;;;;;;5.45;4.95;;;;;;;22.86;60.52;95664.22;5035238;28;20210;-82
2021/08/22 01:55:53;;;;;;;5.20;4.80;;;;;;;22.87;60.43;95671.06;5035914;28;20202;-85
2021/08/22 01:58:20;;;;;;;5.40;4.95;;;;;;;22.84;60.35;95677.59;5035334;28;20596;-86
2021/08/22 02:00:48;;;;;;;5.03;4.63;;;;;;;22.81;60.43;95679.94;5035986;28;20202;-84
2021/08/22 02:03:18;;;;;;;5.55;5.00;;;;;;;22.80;60.57;95687.00;5036512;28;20194;-82
2021/08/22 02:05:48;;;;;;;5.38;4.88;;;;;;;22.80;60.73;95694.91;5036336;28;20225;-83
2021/08/22 02:08:19;;;;;;;5.43;4.93;;;;;;;22.80;60.67;95691.47;5035809;28;20197;-84
2021/08/22 02:10:54;;;;;;;5.43;4.93;;;;;;;22.73;61.37;95691.66;5034988;28;20202;-82
2021/08/22 02:13:28;;;;;;;5.03;4.63;;;;;;;22.68;61.39;95704.75;5034558;28;20205;-85
2021/08/22 02:15:58;;;;;;;5.00;4.60;;;;;;;22.62;61.26;95690.78;5035007;28;20857;-82
2021/08/22 02:18:26;;;;;;;5.57;5.07;;;;;;;22.64;61.06;95687.91;5033948;28;20229;-84
2021/08/22 02:20:53;;;;;;;5.47;4.97;;;;;;;22.58;61.79;95697.56;5035274;28;20315;-85
2021/08/22 02:23:22;;;;;;;5.15;4.75;;;;;;;22.58;61.79;95700.19;5034531;28;20602;-85
2021/08/22 02:25:48;;;;;;;5.55;5.00;;;;;;;22.52;61.87;95685.41;5035207;28;20252;-82
2021/08/22 02:28:15;;;;;;;5.32;4.93;;;;;;;22.50;61.96;95686.72;5035648;28;20198;-84
2021/08/22 02:30:42;;;;;;;5.35;4.88;;;;;;;22.47;62.32;95688.03;5035253;28;20202;-83
2021/08/22 02:33:09;;;;;;;5.35;4.95;;;;;;;22.46;62.50;95696.94;5035738;28;20198;-82
2021/08/22 02:35:36;;;;;;;5.30;4.82;;;;;;;22.44;63.40;95699.00;5035385;28;20627;-84
2021/08/22 02:38:02;;;;;;;5.53;5.03;;;;;;;22.38;63.64;95703.41;5034992;28;20221;-85
2021/08/22 02:40:30;;;;;;;5.18;4.68;;;;;;;22.34;64.05;95712.00;5034606;28;20198;-84
2021/08/22 02:42:57;;;;;;;5.40;5.00;;;;;;;22.32;64.35;95722.75;5034609;28;20209;-84
2021/08/22 02:45:23;;;;;;;5.70;5.20;;;;;;;22.29;65.04;95722.47;5033482;28;20233;-86
2021/08/22 02:47:50;;;;;;;6.18;5.68;;;;;;;22.26;65.46;95725.59;5034945;28;20198;-85
2021/08/22 02:50:16;;;;;;;6.38;5.43;;;;;;;22.26;66.08;95722.97;5035441;28;20213;-86
2021/08/22 02:52:43;;;;;;;5.93;5.35;;;;;;;22.26;65.59;95717.72;5035597;28;20410;-83
2021/08/22 02:55:10;;;;;;;6.20;5.57;;;;;;;22.32;65.96;95727.22;5035056;28;20836;-86
2021/08/22 02:57:38;;;;;;;6.15;5.65;;;;;;;22.28;66.00;95720.88;5034607;28;20218;-86
2021/08/22 03:00:05;;;;;;;6.00;5.00;;;;;;;22.28;66.11;95732.19;5034981;28;20209;-86
2021/08/22 03:02:32;;;;;;;6.35;5.75;;;;;;;22.26;66.71;95730.84;5034793;28;20220;-85
2021/08/22 03:04:58;;;;;;;6.22;5.63;;;;;;;22.28;66.04;95732.19;5034848;28;20222;-86
2021/08/22 03:07:24;;;;;;;6.47;5.88;;;;;;;22.21;66.62;95736.81;5034643;28;20226;-85
2021/08/22 03:09:51;;;;;;;5.63;5.15;;;;;;;22.20;66.64;95742.28;5035037;28;20206;-86
2021/08/22 03:12:17;;;;;;;6.15;5.55;;;;;;;22.19;67.11;95735.47;5034913;28;20654;-85
2021/08/22 03:14:45;;;;;;;5.78;5.28;;;;;;;22.22;65.95;95746.25;5034787;28;20234;-86
2021/08/22 03:17:12;;;;;;;5.60;5.10;;;;;;;22.21;66.23;95755.16;5035038;28;20221;-85
2021/08/22 03:19:38;;;;;;;5.43;4.93;;;;;;;22.16;65.72;95756.94;5035211;28;20206;-85
2021/08/22 03:22:05;;;;;;;5.80;5.25;;;;;;;22.05;65.78;95759.44;5034636;28;20209;-86
2021/08/22 03:24:32;;;;;;;5.43;4.93;;;;;;;21.98;65.89;95768.50;5034256;28;20228;-84
2021/08/22 03:26:58;;;;;;;5.45;4.95;;;;;;;22.02;65.50;95772.25;5035304;28;20210;-86
2021/08/22 03:29:25;;;;;;;5.53;5.10;;;;;;;22.02;65.99;95785.34;5034868;28;20217;-86
2021/08/22 03:31:53;;;;;;;5.50;5.00;;;;;;;22.02;65.53;95814.19;5033989;28;20202;-86
2021/08/22 03:34:19;;;;;;;5.13;4.72;;;;;;;21.95;65.74;95829.28;5034214;28;20223;-86
2021/08/22 03:36:45;;;;;;;6.20;5.10;;;;;;;21.91;64.45;95843.94;5035025;28;20228;-86
2021/08/22 03:39:12;;;;;;;5.78;5.20;;;;;;;21.95;64.41;95847.63;5034524;28;20640;-86
2021/08/22 03:41:38;;;;;;;5.38;4.95;;;;;;;21.93;64.56;95868.06;5034422;28;20206;-85
2021/08/22 03:44:05;;;;;;;5.07;4.57;;;;;;;21.92;64.66;95863.88;5034362;28;20304;-85
2021/08/22 03:46:32;;;;;;;5.47;4.97;;;;;;;21.89;65.06;95874.84;5034729;28;20207;-86
2021/08/22 03:48:59;;;;;;;5.40;4.93;;;;;;;21.95;65.21;95871.22;5034347;28;20678;-86
2021/08/22 03:51:26;;;;;;;5.80;5.18;;;;;;;21.95;65.37;95869.41;5034147;28;20202;-85
2021/08/22 03:53:53;;;;;;;5.45;5.03;;;;;;;21.94;65.58;95885.38;5034691;28;20234;-86
2021/08/22 03:56:20;;;;;;;5.28;4.57;;;;;;;21.96;66.70;95897.22;5034471;28;20206;-85
2021/08/22 03:58:46;;;;;;;8.23;5.05;;;;;;;21.96;67.27;95907.69;5034122;28;20225;-88
2021/08/22 04:01:13;;;;;;;6.20;5.13;;;;;;;22.02;67.79;95900.75;5034192;28;20202;-86
2021/08/22 04:03:40;;;;;;;5.97;5.38;;;;;;;22.00;68.27;95916.72;5034084;28;20226;-86
2021/08/22 04:06:09;;;;;;;6.97;5.65;;;;;;;21.98;68.80;95923.19;5032971;28;20236;-86
2021/08/22 04:08:36;;;;;;;5.50;5.00;;;;;;;21.78;70.31;95921.06;5034062;28;20194;-86
2021/08/22 04:11:02;;;;;;;6.10;5.60;;;;;;;21.71;71.25;95912.56;5033281;28;20202;-86
2021/08/22 04:13:29;;;;;;;5.80;5.20;;;;;;;21.74;71.64;95912.09;5033517;28;20295;-84
2021/08/22 04:15:55;;;;;;;6.07;5.35;;;;;;;21.76;71.36;95901.34;5033919;28;20213;-86
2021/08/22 04:18:23;;;;;;;6.20;5.60;;;;;;;21.73;72.28;95897.41;5034755;28;20613;-83
2021/08/22 04:20:49;;;;;;;6.28;5.22;;;;;;;21.70;73.27;95896.06;5035056;28;20204;-86
2021/08/22 04:23:17;;;;;;;6.72;5.50;;;;;;;21.67;73.83;95898.34;5034328;28;20210;-84
2021/08/22 04:25:45;;;;;;;7.35;6.10;;;;;;;21.65;74.10;95895.16;5033924;28;20202;-87
2021/08/22 04:28:12;;;;;;;6.85;5.80;;;;;;;21.58;76.96;95891.91;5033787;28;20206;-86
2021/08/22 04:30:38;;;;;;;6.47;5.88;;;;;;;21.53;76.81;95889.22;5033607;28;20205;-86
2021/08/22 04:33:04;;;;;;;8.13;5.97;;;;;;;21.53;77.66;95900.50;5033369;28;20237;-87
2021/08/22 04:35:31;;;;;;;6.47;5.80;;;;;;;21.48;77.51;95903.03;5033359;28;20222;-84
2021/08/22 04:37:58;;;;;;;7.03;6.30;;;;;;;21.50;77.36;95910.66;5033597;28;20705;-84
2021/08/22 04:40:29;;;;;;;6.50;5.90;;;;;;;21.48;78.20;95907.47;5033962;28;20871;-86
2021/08/22 04:42:56;;;;;;;6.78;6.07;;;;;;;21.42;78.21;95916.25;5033397;28;20251;-82
2021/08/22 04:45:22;;;;;;;6.72;6.03;;;;;;;21.31;79.23;95902.22;5033669;28;20220;-84
2021/08/22 04:47:49;;;;;;;6.35;5.35;;;;;;;21.34;78.70;95907.78;5033816;28;20198;-87
2021/08/22 04:50:15;;;;;;;6.68;5.97;;;;;;;21.24;80.39;95902.34;5033302;28;20200;-84
2021/08/22 04:52:42;;;;;;;7.55;5.68;;;;;;;21.18;79.94;95892.78;5032983;28;20210;-83
2021/08/22 04:55:09;;;;;;;6.07;5.57;;;;;;;21.09;79.94;95886.34;5032752;28;20232;-83
2021/08/22 04:57:37;;;;;;;6.20;5.60;;;;;;;21.08;79.93;95881.34;5033157;28;20206;-82
2021/08/22 05:00:04;;;;;;;7.55;5.57;;;;;;;21.05;81.00;95872.13;5033555;28;20205;-83
2021/08/22 05:02:31;;;;;;;5.65;5.13;;;;;;;21.01;80.42;95863.94;5033437;28;20273;-83
2021/08/22 05:04:58;;;;;;;5.63;5.13;;;;;;;20.92;81.28;95860.13;5032416;28;20245;-87
2021/08/22 05:07:24;;;;;;;5.30;4.80;;;;;;;20.94;81.33;95862.50;5032974;28;20229;-84
2021/08/22 05:09:50;;;;;;;5.60;5.00;;;;;;;20.91;81.11;95860.34;5032958;28;20208;-86
2021/08/22 05:12:17;;;;;;;5.78;4.78;;;;;;;20.94;80.06;95852.84;5033294;28;20206;-86
2021/08/22 05:14:45;;;;;;;5.80;5.22;;;;;;;20.97;80.84;95848.94;5032110;28;20230;-86
2021/08/22 05:17:11;;;;;;;6.00;4.72;;;;;;;20.94;80.61;95841.56;5032468;28;20209;-83
2021/08/22 05:19:38;;;;;;;6.60;4.90;;;;;;;20.96;80.84;95829.84;5033160;28;20226;-86
2021/08/22 05:22:05;;;;;;;6.00;5.00;;;;;;;21.01;80.64;95824.66;5035404;28;20229;-83
2021/08/22 05:24:32;;;;;;;4.97;4.55;;;;;;;21.11;80.84;95820.66;5036699;28;20236;-83
2021/08/22 05:26:58;;;;;;;7.05;4.93;;;;;;;21.11;81.48;95820.66;5036969;28;20205;-86
2021/08/22 05:29:25;;;;;;;5.43;4.93;;;;;;;21.11;81.23;95818.03;5036880;28;20297;-86
2021/08/22 05:31:52;;;;;;;5.15;4.60;;;;;;;21.09;81.01;95827.94;5036870;28;20213;-87
2021/08/22 05:34:19;;;;;;;4.85;4.45;;;;;;;21.00;81.28;95828.31;5036125;28;20233;-83
2021/08/22 05:36:45;;;;;;;5.10;4.70;;;;;;;20.99;80.57;95818.06;5037012;28;20202;-87
2021/08/22 05:39:12;;;;;;;5.10;4.60;;;;;;;20.86;81.69;95824.41;5036336;28;20597;-88
2021/08/22 05:41:38;;;;;;;4.90;4.13;;;;;;;20.81;81.50;95811.22;5036783;28;20221;-83
2021/08/22 05:44:05;;;;;;;5.32;4.32;;;;;;;20.72;81.14;95804.00;5037048;28;20619;-87
2021/08/22 05:46:33;;;;;;;5.72;4.60;;;;;;;20.64;82.42;95805.16;5036385;28;20213;-87
2021/08/22 05:49:01;;;;;;;4.38;3.97;;;;;;;20.62;81.92;95800.16;5035836;28;20194;-86
2021/08/22 05:51:27;;;;;;;4.95;3.90;;;;;;;20.64;81.67;95798.09;5036347;28;20229;-86
2021/08/22 05:53:57;;;;;;;5.18;4.50;;;;;;;20.68;80.90;95799.22;5036051;28;20222;-83
2021/08/22 05:56:23;;;;;;;4.85;4.25;;;;;;;20.61;81.25;95810.84;5036214;28;20623;-84
2021/08/22 05:58:50;;;;;;;4.25;3.85;;;;;;;20.66;81.10;95810.94;5036691;28;20225;-85
2021/08/22 06:01:16;;;;;;;4.32;3.90;;;;;;;20.63;81.29;95804.34;5036506;28;20205;-85
2021/08/22 06:03:48;;;;;;;4.38;3.97;;;;;;;20.72;80.87;95804.78;5036677;28;20233;-86
2021/08/22 06:06:16;;;;;;;4.10;3.70;;;;;;;20.79;80.09;95794.16;5036808;28;20268;-87
2021/08/22 06:08:42;;;;;;;4.63;3.67;;;;;;;20.76;80.17;95802.50;5037381;28;20205;-83
2021/08/22 06:11:09;;;;;;;4.10;3.50;;;;;;;20.79;79.96;95802.81;5036928;28;20198;-83
2021/08/22 06:13:35;;;;;;;5.13;3.72;;;;;;;20.79;80.96;95817.72;5036480;28;20230;-85
2021/08/22 06:16:02;;;;;;;3.80;3.50;;;;;;;20.79;80.61;95820.31;5037160;28;20210;-83
2021/08/22 06:18:28;;;;;;;4.72;3.60;;;;;;;20.63;81.37;95817.44;5037142;28;20225;-83
2021/08/22 06:20:55;;;;;;;4.28;3.70;;;;;;;20.78;80.81;95818.78;5037046;28;20211;-85
2021/08/22 06:23:23;;;;;;;3.72;3.28;;;;;;;20.79;80.69;95820.31;5036863;28;20221;-85
2021/08/22 06:25:49;;;;;;;4.50;3.15;;;;;;;20.84;79.91;95813.38;5037116;28;20198;-83
2021/08/22 06:28:16;;;;;;;4.15;3.75;;;;;;;20.92;79.51;95815.63;5038137;28;20212;-86
2021/08/22 06:30:42;;;;;;;5.22;3.30;;;;;;;20.82;78.45;95815.41;5037542;28;20209;-86
2021/08/22 06:33:09;;;;;;;3.50;3.20;;;;;;;20.66;78.69;95809.13;5035746;28;20205;-86
2021/08/22 06:35:36;;;;;;;3.50;3.20;;;;;;;20.76;78.32;95812.97;5036955;28;20225;-85
2021/08/22 06:38:02;;;;;;;4.30;3.63;;;;;;;20.81;77.91;95816.44;5031144;28;20202;-85
2021/08/22 06:40:30;;;;;;;3.50;3.03;;;;;;;20.91;77.89;95828.94;5023139;28;20211;-87
2021/08/22 06:42:57;;;;;;;3.50;3.00;;;;;;;20.97;77.48;95822.78;5018070;28;20203;-86
2021/08/22 06:45:23;;;;;;;3.38;3.08;;;;;;;21.12;77.30;95814.38;5017898;28;20231;-82
2021/08/22 06:47:53;;;;;;;3.45;3.15;;;;;;;21.23;76.83;95814.31;5017643;28;20214;-85
2021/08/22 06:50:20;;;;;;;4.05;2.95;;;;;;;21.28;77.82;95811.78;5017481;28;20207;-87
2021/08/22 06:52:47;;;;;;;3.13;2.83;;;;;;;21.37;77.56;95817.41;5023808;28;20217;-81
2021/08/22 06:55:13;;;;;;;4.20;3.80;;;;;;;21.38;76.25;95819.81;5024767;28;20310;-83
2021/08/22 06:57:41;;;;;;;3.10;2.90;;;;;;;21.41;75.10;95823.78;5016063;28;20207;-83
2021/08/22 07:00:09;;;;;;;3.17;2.88;;;;;;;21.47;75.17;95832.50;5016463;28;20238;-83
2021/08/22 07:02:35;;;;;;;3.28;2.97;;;;;;;21.49;74.92;95830.47;5022029;28;20202;-83
2021/08/22 07:05:02;;;;;;;2.88;2.60;;;;;;;21.47;74.47;95825.44;5035715;28;20226;-86
2021/08/22 07:07:28;;;;;;;4.05;2.80;;;;;;;21.52;74.36;95824.75;5036142;28;20202;-87
2021/08/22 07:09:55;;;;;;;3.20;3.00;;;;;;;21.55;73.78;95814.56;5035910;28;20208;-86
2021/08/22 07:12:21;;;;;;;3.08;2.83;;;;;;;21.44;73.89;95827.75;5036449;28;20271;-86
2021/08/22 07:14:49;;;;;;;3.33;3.00;;;;;;;21.59;74.05;95835.84;5035532;28;20245;-86
2021/08/22 07:17:20;;;;;;;3.63;3.33;;;;;;;21.65;74.53;95834.88;5036894;28;20236;-86
2021/08/22 07:19:46;;;;;;;3.28;2.72;;;;;;;21.73;73.37;95826.63;5036251;28;20813;-86
2021/08/22 07:22:13;;;;;;;2.83;2.58;;;;;;;21.73;74.27;95834.50;5036146;28;20202;-86
2021/08/22 07:24:39;;;;;;;2.78;2.58;;;;;;;21.74;73.98;95828.22;5036040;28;20222;-86
2021/08/22 07:27:06;;;;;;;2.90;2.70;;;;;;;21.80;72.61;95826.44;5036680;28;20285;-85
2021/08/22 07:29:32;;;;;;;3.47;2.60;;;;;;;21.85;73.12;95821.28;5034444;28;20198;-84
2021/08/22 07:32:06;;;;;;;3.05;2.60;;;;;;;21.88;72.24;95815.56;5035041;28;20205;-86
2021/08/22 07:34:32;;;;;;;3.10;2.80;;;;;;;21.86;71.40;95820.25;5034071;28;20791;-87
2021/08/22 07:37:01;;;;;;;2.85;2.53;;;;;;;21.74;69.70;95820.34;5035072;28;20206;-85
2021/08/22 07:39:30;;;;;;;3.83;2.65;;;;;;;21.85;70.06;95827.31;5035376;28;20244;-82
2021/08/22 07:41:56;;;;;;;2.70;2.50;;;;;;;21.93;70.29;95834.78;5034593;28;20202;-86
2021/08/22 07:44:23;;;;;;;2.70;2.50;;;;;;;21.93;69.00;95840.03;5034337;28;20221;-85
2021/08/22 07:46:49;;;;;;;2.70;2.50;;;;;;;22.05;69.08;95826.84;5034484;28;20217;-85
2021/08/22 07:49:19;;;;;;;2.60;2.40;;;;;;;22.20;69.16;95829.66;5034994;28;20239;-85
2021/08/22 07:51:45;;;;;;;2.60;2.40;;;;;;;22.29;68.74;95832.66;5033313;28;20252;-81
2021/08/22 07:54:12;;;;;;;2.70;2.50;;;;;;;22.51;69.04;95833.44;5033784;28;20240;-85
2021/08/22 07:56:40;;;;;;;2.78;2.58;;;;;;;22.67;68.20;95821.28;5033583;28;20198;-84
2021/08/22 07:59:06;;;;;;;2.97;2.67;;;;;;;22.84;66.75;95819.41;5033631;28;20219;-84
2021/08/22 08:01:33;;;;;;;2.67;2.45;;;;;;;23.17;66.51;95818.38;5033562;28;20229;-81
2021/08/22 08:03:59;;;;;;;2.85;2.63;;;;;;;23.46;65.54;95824.16;5033443;28;20229;-81
2021/08/22 08:06:27;;;;;;;2.90;2.70;;;;;;;23.46;66.16;95825.97;5032707;28;20233;-82
2021/08/22 08:08:53;;;;;;;2.38;2.17;;;;;;;23.57;65.29;95817.94;5033755;28;20199;-82
2021/08/22 08:11:20;;;;;;;2.63;2.42;;;;;;;23.68;64.72;95826.69;5034814;28;20715;-83
2021/08/22 08:13:49;;;;;;;2.60;2.40;;;;;;;23.94;63.51;95825.81;5032720;28;20723;-84
2021/08/22 08:16:16;;;;;;;2.70;2.50;;;;;;;24.03;63.05;95834.03;5033478;28;20214;-83
2021/08/22 08:18:42;;;;;;;3.95;2.53;;;;;;;24.01;62.96;95834.28;5032951;28;20592;-82
2021/08/22 08:21:09;;;;;;;2.90;2.70;;;;;;;23.95;63.38;95824.75;5034086;28;20228;-85
2021/08/22 08:23:38;;;;;;;2.40;2.20;;;;;;;23.77;63.13;95833.84;5032771;28;20213;-81
2021/08/22 08:26:13;;;;;;;3.10;2.67;;;;;;;23.64;63.45;95826.41;5033409;28;20202;-85
2021/08/22 08:28:40;;;;;;;2.78;2.50;;;;;;;23.59;64.02;95830.84;5033128;28;20449;-83
2021/08/22 08:31:06;;;;;;;2.95;2.75;;;;;;;23.56;65.02;95836.59;5033238;28;20293;-86
2021/08/22 08:33:33;;;;;;;2.50;2.30;;;;;;;23.58;64.62;95829.25;5032987;28;20206;-84
2021/08/22 08:35:59;;;;;;;2.85;2.50;;;;;;;23.54;64.60;95833.41;5033310;28;20206;-85
2021/08/22 08:38:26;;;;;;;2.65;2.45;;;;;;;23.48;64.99;95832.56;5033066;28;20236;-86
2021/08/22 08:40:54;;;;;;;2.80;2.60;;;;;;;23.50;64.38;95837.56;5033131;28;20213;-85
2021/08/22 08:43:22;;;;;;;7.70;6.97;;;;;;;23.50;64.79;95840.97;5032425;28;20194;-83
2021/08/22 08:45:51;;;;;;;3.40;3.10;;;;;;;23.54;64.59;95839.47;5032505;28;20206;-83
2021/08/22 08:48:22;;;;;;;2.63;2.42;;;;;;;23.56;64.89;95832.13;5033725;28;20205;-83
2021/08/22 08:50:54;;;;;;;2.55;2.30;;;;;;;23.59;64.64;95836.88;5033400;28;20209;-84
2021/08/22 08:53:21;;;;;;;2.85;2.47;;;;;;;23.49;66.16;95843.84;5033148;28;20199;-84
2021/08/22 08:55:48;;;;;;;3.90;2.33;;;;;;;23.53;65.78;95845.78;5032526;28;20205;-85
2021/08/22 08:58:16;;;;;;;2.63;2.40;;;;;;;23.56;64.99;95847.91;5033558;28;20705;-84
2021/08/22 09:00:43;;;;;;;2.35;2.15;;;;;;;23.60;64.56;95835.84;5033167;28;20226;-85
2021/08/22 09:03:09;;;;;;;3.17;2.65;;;;;;;23.65;63.53;95838.50;5033303;28;20198;-86
2021/08/22 09:05:44;;;;;;;2.70;2.50;;;;;;;23.80;64.07;95826.50;5032502;28;20633;-85
2021/08/22 09:08:52;;;;;;;2.80;2.60;;;;;;;23.90;64.21;95835.25;5033048;28;20213;-86
2021/08/22 09:12:08;;;;;;;2.80;2.50;;;;;;;23.99;62.81;95828.47;5018768;28;20216;-85
2021/08/22 09:15:14;;;;;;;2.60;2.40;;;;;;;24.17;61.62;95821.97;4990078;28;20238;-86
2021/08/22 09:18:18;;;;;;;2.65;2.45;;;;;;;24.17;61.81;95827.25;5034270;28;20197;-84
2021/08/22 09:21:21;;;;;;;2.70;2.50;;;;;;;24.20;62.40;95845.16;5031277;28;20312;-86
2021/08/22 09:24:20;;;;;;;3.58;2.70;;;;;;;24.22;61.56;95843.06;5030636;28;20720;-84
2021/08/22 09:27:32;;;;;;;2.40;2.20;;;;;;;24.33;62.35;95849.97;5032606;28;20194;-84
2021/08/22 09:30:35;;;;;;;2.78;2.40;;;;;;;24.45;61.10;95860.28;5033315;28;20210;-85
2021/08/22 09:33:43;;;;;;;2.63;2.42;;;;;;;24.49;60.44;95845.56;5032403;28;20231;-84
2021/08/22 09:37:02;;;;;;;3.00;2.70;;;;;;;24.45;61.99;95844.50;4998920;28;20209;-82
2021/08/22 09:40:06;;;;;;;2.72;2.53;;;;;;;24.46;58.91;95848.72;5032345;28;20288;-84
2021/08/22 09:43:09;;;;;;;2.90;2.70;;;;;;;24.51;58.71;95846.09;5032554;28;20228;-81
2021/08/22 09:46:21;;;;;;;3.88;2.60;;;;;;;24.81;58.90;95842.00;5032280;28;20329;-81
2021/08/22 09:49:24;;;;;;;2.75;2.55;;;;;;;24.70;59.65;95841.16;5032656;28;20202;-81
2021/08/22 09:52:35;;;;;;;3.88;2.72;;;;;;;24.59;59.65;95840.34;4999330;28;20269;-82
2021/08/22 09:55:44;;;;;;;2.80;2.60;;;;;;;24.71;58.60;95842.75;5031819;28;20292;-85
2021/08/22 09:58:50;;;;;;;3.25;2.95;;;;;;;24.94;59.19;95839.69;5032840;28;20202;-84
2021/08/22 10:02:06;;;;;;;4.72;4.32;;;;;;;25.20;58.00;95837.09;5032411;28;20201;-82
2021/08/22 10:05:13;;;;;;;10.77;9.77;;;;;;;25.19;56.64;95835.50;4977589;28;20709;-84
2021/08/22 10:08:21;;;;;;;3.05;2.80;;;;;;;25.04;55.60;95833.63;5014874;28;20210;-85
2021/08/22 10:10:50;;;;;;;2.90;2.70;;;;;;;25.04;56.67;95828.34;5012161;28;20195;-84
2021/08/22 10:13:17;;;;;;;3.17;2.88;;;;;;;24.98;57.17;95826.78;5016293;28;20213;-86
2021/08/22 10:15:44;;;;;;;3.20;2.80;;;;;;;25.11;57.42;95834.19;5017205;28;20266;-84
2021/08/22 10:18:11;;;;;;;3.03;2.72;;;;;;;25.41;57.19;95822.84;5017133;28;20271;-85
2021/08/22 10:20:41;;;;;;;2.90;2.70;;;;;;;25.61;55.42;95817.56;5016770;28;20234;-86
2021/08/22 10:23:41;;;;;;;3.17;2.30;;;;;;;25.79;54.01;95814.41;5016654;28;20202;-84
2021/08/22 10:26:10;;;;;;;3.28;2.80;;;;;;;25.74;54.60;95814.44;5015278;28;20260;-85
2021/08/22 10:29:03;;;;;;;2.92;2.63;;;;;;;25.59;54.92;95813.63;5015085;28;20199;-84
2021/08/22 10:32:11;;;;;;;2.85;2.65;;;;;;;25.59;55.45;95814.44;5015643;28;20209;-85
2021/08/22 10:34:39;;;;;;;2.90;2.70;;;;;;;25.68;55.80;95814.69;4989426;28;20226;-84
2021/08/22 10:37:31;;;;;;;2.85;2.65;;;;;;;25.80;54.92;95815.97;5015726;28;20207;-85
2021/08/22 10:40:00;;;;;;;2.95;2.70;;;;;;;25.91;54.35;95806.22;5017089;28;20226;-84
2021/08/22 10:42:29;;;;;;;2.88;2.67;;;;;;;26.00;54.58;95803.81;5016320;28;20199;-86
2021/08/22 10:44:55;;;;;;;2.97;2.78;;;;;;;26.02;53.78;95810.41;5016204;28;20219;-86
2021/08/22 10:47:43;;;;;;;2.92;2.72;;;;;;;25.99;53.77;95800.38;5015835;28;20210;-85
2021/08/22 10:50:11;;;;;;;3.00;2.70;;;;;;;25.81;55.05;95798.31;5015690;28;20249;-84
2021/08/22 10:52:39;;;;;;;2.78;2.58;;;;;;;25.69;55.70;95806.53;5016268;28;20218;-86
2021/08/22 10:55:27;;;;;;;3.15;2.88;;;;;;;25.47;56.62;95805.97;5021919;28;20218;-85
2021/08/22 10:57:55;;;;;;;3.10;2.90;;;;;;;25.39;55.88;95798.63;5036435;28;20597;-86
2021/08/22 11:00:22;;;;;;;3.33;3.00;;;;;;;25.34;56.00;95788.84;5038238;28;20222;-85
2021/08/22 11:02:49;;;;;;;3.58;2.95;;;;;;;25.41;56.65;95793.84;5036679;28;20190;-86
2021/08/22 11:05:17;;;;;;;2.90;2.70;;;;;;;25.41;56.00;95796.47;5036245;28;20233;-85
2021/08/22 11:07:44;;;;;;;3.22;2.95;;;;;;;25.41;56.24;95791.22;5040591;28;20542;-86
2021/08/22 11:10:16;;;;;;;2.88;2.67;;;;;;;25.35;55.30;95792.28;5037698;28;20237;-86
2021/08/22 11:12:43;;;;;;;3.15;2.85;;;;;;;25.36;55.05;95785.97;5036682;28;20260;-84
2021/08/22 11:15:23;;;;;;;2.80;2.60;;;;;;;25.31;54.28;95789.38;5034907;28;20227;-82
2021/08/22 11:17:50;;;;;;;3.10;2.90;;;;;;;25.13;54.40;95788.06;5035123;28;20252;-86
2021/08/22 11:20:21;;;;;;;3.00;2.80;;;;;;;25.12;54.39;95783.84;5033861;28;20737;-85
2021/08/22 11:22:50;;;;;;;3.03;2.70;;;;;;;25.06;55.35;95794.63;5035587;28;20206;-85
2021/08/22 11:25:17;;;;;;;3.33;3.03;;;;;;;25.05;55.73;95783.31;5034791;28;20250;-85
2021/08/22 11:27:45;;;;;;;3.60;3.30;;;;;;;25.07;55.26;95785.69;5035571;28;20207;-86
2021/08/22 11:30:13;;;;;;;3.22;2.92;;;;;;;25.07;55.40;95780.41;5036148;28;20857;-85
2021/08/22 11:32:50;;;;;;;3.00;2.80;;;;;;;24.99;55.54;95784.38;5035960;28;20203;-86
2021/08/22 11:35:18;;;;;;;2.92;2.72;;;;;;;24.94;56.11;95783.53;5035953;28;20225;-85
2021/08/22 11:37:46;;;;;;;3.22;3.00;;;;;;;24.94;56.57;95776.47;5035801;28;20269;-85
2021/08/22 11:40:14;;;;;;;2.85;2.60;;;;;;;24.86;56.64;95776.94;5035603;28;20218;-86
2021/08/22 11:42:45;;;;;;;2.97;2.78;;;;;;;24.83;56.73;95772.19;5035565;28;20225;-87
2021/08/22 11:45:15;;;;;;;3.15;2.92;;;;;;;24.83;56.78;95777.44;5034351;28;20717;-86
2021/08/22 11:47:42;;;;;;;3.80;3.00;;;;;;;24.84;56.59;95771.13;5034366;28;20194;-84
2021/08/22 11:50:11;;;;;;;3.13;2.92;;;;;;;24.84;56.75;95770.34;5035182;28;20205;-81
2021/08/22 11:52:39;;;;;;;3.00;2.80;;;;;;;24.75;57.08;95775.34;5035412;28;20286;-86